Time;durP1;ratioP1;P1;durP2;ratioP2;P2;SDS_P1;SDS_P2;PMS_P1;PMS_P2;Temp;Humidity;BMP_temperature;BMP_pressure;BME280_temperature;BME280_humidity;BME280_pressure;Samples;Min_cycle;Max_cycle;Signal;HPM_P1;HPM_P2
2021/07/21 00:01:48;;;;;;;22.30;17.30;;;;;;;20.51;84.27;98804.87;1741223;82;21450;-70
2021/07/21 00:04:17;;;;;;;22.55;16.80;;;;;;;20.48;84.23;98805.58;1736970;81;21597;-70
2021/07/21 00:06:43;;;;;;;19.90;16.32;;;;;;;20.45;84.26;98805.72;1735504;82;20952;-70
2021/07/21 00:09:09;;;;;;;20.82;16.32;;;;;;;20.43;84.35;98798.38;1730698;82;21010;-70
2021/07/21 00:14:21;;;;;;;22.85;17.62;;;;;;;20.48;84.48;98801.42;1733303;81;21114;-70
2021/07/21 00:16:56;;;;;;;20.57;16.50;;;;;;;20.46;84.50;98788.55;1742046;82;21014;-70
2021/07/21 00:22:02;;;;;;;23.95;17.50;;;;;;;20.56;84.28;98792.14;1740938;82;21510;-70
2021/07/21 00:24:29;;;;;;;24.50;16.82;;;;;;;20.57;84.31;98797.33;1738910;82;21622;-70
2021/07/21 00:26:56;;;;;;;23.07;17.40;;;;;;;20.58;84.22;98796.75;1722326;82;21514;-70
2021/07/21 00:29:22;;;;;;;23.27;17.25;;;;;;;20.56;84.19;98797.67;1713633;82;21606;-70
2021/07/21 00:31:49;;;;;;;26.23;17.35;;;;;;;20.58;84.18;98799.52;1723724;82;21004;-69
2021/07/21 00:34:15;;;;;;;23.67;16.73;;;;;;;20.62;84.21;98798.41;1721042;82;21047;-70
2021/07/21 00:36:42;;;;;;;19.02;16.02;;;;;;;20.64;84.07;98802.21;1732339;82;21016;-70
2021/07/21 00:39:09;;;;;;;23.55;16.45;;;;;;;20.66;84.05;98803.45;1722042;82;20972;-71
2021/07/21 00:41:35;;;;;;;23.57;16.82;;;;;;;20.68;84.03;98798.95;1732164;82;21011;-70
2021/07/21 00:44:03;;;;;;;21.87;16.60;;;;;;;20.68;83.91;98799.75;1722395;82;21027;-70
2021/07/21 00:46:29;;;;;;;18.17;15.43;;;;;;;20.67;83.83;98798.14;1715775;82;20984;-70
2021/07/21 00:48:56;;;;;;;19.90;16.20;;;;;;;20.68;83.83;98798.38;1727817;82;21012;-70
2021/07/21 00:51:22;;;;;;;21.25;15.18;;;;;;;20.69;83.84;98790.88;1718504;82;21506;-70
2021/07/21 00:53:49;;;;;;;19.67;15.50;;;;;;;20.72;83.82;98792.34;1725438;82;20999;-71
2021/07/21 00:56:17;;;;;;;20.17;15.23;;;;;;;20.74;83.64;98794.73;1709746;82;21606;-70
2021/07/21 00:58:45;;;;;;;21.45;15.70;;;;;;;20.75;83.53;98801.30;1724061;82;21664;-71
2021/07/21 01:01:12;;;;;;;22.30;15.18;;;;;;;20.77;83.41;98795.39;1733008;81;21064;-71
2021/07/21 01:03:39;;;;;;;20.85;15.32;;;;;;;20.83;83.32;98793.36;1711016;82;21002;-70
2021/07/21 01:06:06;;;;;;;16.77;14.63;;;;;;;20.87;83.15;98793.43;1725131;82;21657;-70
2021/07/21 01:08:33;;;;;;;19.00;15.55;;;;;;;20.90;83.02;98796.88;1721097;82;21015;-71
2021/07/21 01:11:40;;;;;;;18.17;15.40;;;;;;;20.91;82.86;98787.40;1713932;82;21625;-71
2021/07/21 01:14:18;;;;;;;19.67;14.93;;;;;;;20.93;82.74;98780.94;1726322;82;20984;-70
2021/07/21 01:16:51;;;;;;;21.02;15.13;;;;;;;20.96;82.71;98780.20;1710853;82;21027;-71
2021/07/21 01:19:41;;;;;;;18.70;15.70;;;;;;;20.97;82.64;98777.67;1720623;82;21040;-70
2021/07/21 01:22:13;;;;;;;18.70;15.18;;;;;;;20.97;82.40;98772.14;1723873;82;21398;-70
2021/07/21 01:25:07;;;;;;;21.73;15.50;;;;;;;20.84;82.06;98772.03;1719891;82;21027;-71
2021/07/21 01:27:50;;;;;;;17.80;15.15;;;;;;;20.72;82.14;98767.45;1733918;82;21022;-70
2021/07/21 01:30:26;;;;;;;25.80;15.48;;;;;;;20.64;82.32;98764.88;1707213;82;21082;-70
2021/07/21 01:33:05;;;;;;;22.55;14.63;;;;;;;20.63;82.54;98766.84;1743117;82;20999;-70
2021/07/21 01:36:00;;;;;;;19.32;15.55;;;;;;;20.61;82.48;98771.14;1673749;84;21130;-70
2021/07/21 01:38:33;;;;;;;22.35;15.63;;;;;;;20.58;82.59;98764.34;1732381;82;20984;-70
2021/07/21 01:41:09;;;;;;;21.62;16.75;;;;;;;20.56;82.71;98763.92;1736585;81;21534;-70
2021/07/21 01:43:36;;;;;;;19.02;15.58;;;;;;;20.56;82.61;98765.87;1733641;82;21003;-70
2021/07/21 01:46:03;;;;;;;20.75;16.17;;;;;;;20.52;82.53;98770.52;1683021;82;21663;-70
2021/07/21 01:48:33;;;;;;;21.02;16.07;;;;;;;20.45;82.35;98771.74;1724849;82;21031;-69
2021/07/21 01:51:00;;;;;;;22.62;16.57;;;;;;;20.39;82.48;98776.76;1736165;82;21003;-70
2021/07/21 01:53:32;;;;;;;23.45;16.95;;;;;;;20.36;82.54;98771.95;1735075;82;21022;-69
2021/07/21 01:56:04;;;;;;;20.25;15.58;;;;;;;20.33;82.58;98774.06;1725687;82;21035;-69
2021/07/21 01:58:30;;;;;;;21.73;16.00;;;;;;;20.29;82.58;98776.73;1702926;83;21035;-69
2021/07/21 02:01:06;;;;;;;21.17;15.88;;;;;;;20.21;82.75;98779.64;1725012;82;21047;-69
2021/07/21 02:03:34;;;;;;;20.15;15.90;;;;;;;20.15;82.98;98786.04;1744938;82;21011;-69
2021/07/21 02:06:03;;;;;;;22.62;15.65;;;;;;;20.13;83.02;98786.96;1745285;82;21011;-69
2021/07/21 02:08:30;;;;;;;20.92;14.80;;;;;;;20.06;83.03;98784.59;1736453;82;20979;-69
2021/07/21 02:10:59;;;;;;;22.98;16.45;;;;;;;20.03;83.19;98787.50;1741620;82;20995;-69
2021/07/21 02:13:27;;;;;;;21.10;16.00;;;;;;;20.03;83.27;98793.59;1679291;83;21020;-69
2021/07/21 02:15:55;;;;;;;20.85;16.55;;;;;;;20.04;83.29;98790.50;1725829;82;21022;-69
2021/07/21 02:18:23;;;;;;;23.55;17.48;;;;;;;19.99;83.25;98786.61;1710620;82;20967;-69
2021/07/21 02:20:50;;;;;;;21.73;16.30;;;;;;;19.98;83.39;98788.36;1743673;82;21000;-69
2021/07/21 02:23:19;;;;;;;24.82;16.32;;;;;;;19.99;83.49;98790.75;1725053;82;21002;-70
2021/07/21 02:25:45;;;;;;;23.50;17.30;;;;;;;20.03;83.46;98793.59;1717907;82;21031;-69
2021/07/21 02:28:14;;;;;;;21.82;17.37;;;;;;;20.00;83.36;98793.75;1722012;82;21027;-68
2021/07/21 02:30:46;;;;;;;21.42;16.57;;;;;;;19.97;83.32;98795.84;1718240;82;21043;-67
2021/07/21 02:33:32;;;;;;;22.70;16.42;;;;;;;19.94;83.25;98797.94;1722656;82;21514;-68
2021/07/21 02:36:00;;;;;;;24.00;16.65;;;;;;;19.90;83.25;98800.38;1722489;82;21023;-68
2021/07/21 02:38:26;;;;;;;25.90;17.87;;;;;;;19.82;83.30;98799.39;1712263;82;21423;-69
2021/07/21 02:40:56;;;;;;;23.60;16.12;;;;;;;19.75;83.44;98805.53;1726084;82;21050;-69
2021/07/21 02:43:24;;;;;;;24.35;17.27;;;;;;;19.75;83.48;98804.73;1714372;82;20989;-68
2021/07/21 02:45:52;;;;;;;21.80;17.67;;;;;;;19.70;83.53;98805.78;1714707;82;21067;-68
2021/07/21 02:48:19;;;;;;;24.85;18.05;;;;;;;19.67;83.63;98804.30;1714899;82;20968;-67
2021/07/21 02:50:48;;;;;;;25.70;17.45;;;;;;;19.67;83.66;98811.20;1690110;82;21086;-68
2021/07/21 02:53:20;;;;;;;22.50;18.32;;;;;;;19.65;83.70;98812.16;1718609;82;20976;-69
2021/07/21 02:55:57;;;;;;;20.88;16.97;;;;;;;19.63;83.85;98813.88;1726027;82;21488;-69
2021/07/21 02:59:03;;;;;;;23.22;16.85;;;;;;;19.63;83.79;98818.59;1726834;82;21015;-67
2021/07/21 03:01:31;;;;;;;24.57;17.85;;;;;;;19.59;83.74;98818.49;1728857;82;20980;-69
2021/07/21 03:03:58;;;;;;;24.25;17.75;;;;;;;19.58;83.65;98820.24;1710982;82;20960;-69
2021/07/21 03:06:26;;;;;;;24.67;18.60;;;;;;;19.53;83.60;98821.86;1709821;82;21003;-70
2021/07/21 03:09:00;;;;;;;23.98;17.42;;;;;;;19.52;83.52;98823.81;1723746;82;20983;-68
2021/07/21 03:11:31;;;;;;;21.52;17.23;;;;;;;19.51;83.56;98818.67;1708812;82;21075;-69
2021/07/21 03:14:01;;;;;;;23.50;17.60;;;;;;;19.52;83.54;98822.44;1726681;82;21164;-69
2021/07/21 03:16:32;;;;;;;22.27;16.95;;;;;;;19.46;83.44;98821.67;1710553;82;21059;-68
2021/07/21 03:19:01;;;;;;;23.15;18.73;;;;;;;19.40;83.57;98821.10;1722270;82;20968;-70
2021/07/21 03:21:30;;;;;;;23.12;17.70;;;;;;;19.36;83.65;98832.61;1682659;84;21038;-70
2021/07/21 03:24:02;;;;;;;22.10;17.10;;;;;;;19.35;83.78;98831.00;1685951;84;21115;-68
2021/07/21 03:26:36;;;;;;;22.58;18.25;;;;;;;19.29;83.61;98835.98;1704174;83;21076;-70
2021/07/21 03:29:05;;;;;;;22.73;17.50;;;;;;;19.24;83.65;98832.64;1687030;84;21030;-68
2021/07/21 03:31:34;;;;;;;19.75;16.10;;;;;;;19.18;83.74;98834.05;1680242;84;21043;-70
2021/07/21 03:34:06;;;;;;;21.33;15.70;;;;;;;19.10;83.72;98828.91;1637278;85;21014;-69
2021/07/21 03:36:37;;;;;;;18.12;14.05;;;;;;;19.03;83.80;98831.45;1681877;84;21041;-68
2021/07/21 03:39:07;;;;;;;21.12;14.75;;;;;;;18.99;83.86;98838.81;1641081;84;21085;-68
2021/07/21 03:41:36;;;;;;;18.98;14.60;;;;;;;18.91;83.95;98849.42;1672906;84;21025;-71
2021/07/21 03:44:04;;;;;;;17.32;13.20;;;;;;;18.90;84.07;98856.09;1675201;84;21006;-70
2021/07/21 03:46:31;;;;;;;16.02;13.32;;;;;;;18.84;84.08;98849.21;1680378;84;21049;-69
2021/07/21 03:49:00;;;;;;;17.20;13.88;;;;;;;18.83;84.22;98857.25;1680577;84;21022;-70
2021/07/21 03:51:35;;;;;;;17.62;12.60;;;;;;;18.83;84.18;98853.92;1656164;84;21049;-69
2021/07/21 03:54:20;;;;;;;17.05;13.83;;;;;;;18.87;84.20;98849.89;1707689;83;21082;-70
2021/07/21 03:56:48;;;;;;;19.80;13.62;;;;;;;18.85;84.12;98846.09;1705022;83;20994;-69
2021/07/21 03:59:17;;;;;;;15.08;12.75;;;;;;;18.82;84.22;98849.55;1711762;83;21492;-70
2021/07/21 04:01:47;;;;;;;19.73;13.50;;;;;;;18.81;84.26;98854.05;1679461;83;21496;-69
2021/07/21 04:04:18;;;;;;;15.28;11.73;;;;;;;18.78;84.34;98854.14;1695702;84;21482;-69
2021/07/21 04:06:45;;;;;;;16.40;12.47;;;;;;;18.79;84.36;98861.84;1690048;84;21584;-68
2021/07/21 04:09:22;;;;;;;17.60;13.03;;;;;;;18.76;84.34;98855.08;1682761;84;21062;-68
2021/07/21 04:11:51;;;;;;;15.65;11.83;;;;;;;18.72;84.54;98862.43;1699363;83;20990;-68
2021/07/21 04:14:20;;;;;;;16.12;12.53;;;;;;;18.70;84.64;98857.04;1668813;84;21112;-69
2021/07/21 04:16:51;;;;;;;17.42;12.55;;;;;;;18.71;84.79;98857.25;1657605;84;21053;-68
2021/07/21 04:19:18;;;;;;;14.03;11.73;;;;;;;18.72;84.86;98857.48;1677531;84;21138;-68
2021/07/21 04:21:48;;;;;;;15.32;11.83;;;;;;;18.70;84.90;98857.85;1690399;84;21780;-69
2021/07/21 04:24:15;;;;;;;15.95;11.55;;;;;;;18.68;84.91;98860.70;1696126;83;21517;-69
2021/07/21 04:26:42;;;;;;;13.30;10.60;;;;;;;18.68;85.06;98867.59;1699372;83;21034;-69
2021/07/21 04:29:15;;;;;;;14.87;11.22;;;;;;;18.71;85.10;98864.95;1681498;84;21023;-69
2021/07/21 04:31:44;;;;;;;14.50;11.83;;;;;;;18.70;85.19;98872.20;1689910;84;21062;-69
2021/07/21 04:34:11;;;;;;;15.98;12.20;;;;;;;18.72;85.25;98863.80;1673916;84;21003;-70
2021/07/21 04:36:40;;;;;;;14.70;11.35;;;;;;;18.74;85.22;98868.39;1689072;84;21019;-69
2021/07/21 04:39:10;;;;;;;13.98;10.90;;;;;;;18.73;85.25;98870.12;1663068;86;21015;-68
2021/07/21 04:41:39;;;;;;;15.75;10.90;;;;;;;18.77;85.24;98867.72;1678293;84;21059;-69
2021/07/21 04:44:07;;;;;;;13.48;11.08;;;;;;;18.74;85.29;98861.50;1692074;84;21027;-68
2021/07/21 04:46:36;;;;;;;18.25;11.33;;;;;;;18.75;85.39;98870.00;1684801;84;22450;-69
2021/07/21 04:49:09;;;;;;;14.65;11.43;;;;;;;18.78;85.43;98860.23;1690106;84;21585;-72
2021/07/21 04:51:36;;;;;;;13.98;10.60;;;;;;;18.74;85.45;98858.73;1678937;84;21586;-69
2021/07/21 04:54:06;;;;;;;18.25;11.53;;;;;;;18.77;85.63;98854.50;1679910;84;21541;-69
2021/07/21 04:56:34;;;;;;;14.05;11.12;;;;;;;18.81;85.64;98855.42;1673054;84;21071;-69
2021/07/21 04:59:02;;;;;;;13.38;10.90;;;;;;;18.90;85.58;98861.60;1720028;82;21510;-72
2021/07/21 05:01:28;;;;;;;15.23;10.53;;;;;;;18.92;85.45;98867.56;1705638;82;21019;-70
2021/07/21 05:03:55;;;;;;;14.50;11.10;;;;;;;18.92;85.48;98863.42;1715382;82;20979;-73
2021/07/21 05:06:31;;;;;;;13.85;11.55;;;;;;;18.95;85.51;98873.78;1722279;82;20987;-70
2021/07/21 05:08:59;;;;;;;12.35;9.78;;;;;;;19.00;85.42;98874.91;1728617;82;21000;-69
2021/07/21 05:11:27;;;;;;;13.72;10.13;;;;;;;19.04;85.37;98875.02;1723259;82;20980;-71
2021/07/21 05:13:56;;;;;;;13.15;10.45;;;;;;;19.10;85.23;98879.94;1723108;82;20948;-70
2021/07/21 05:16:25;;;;;;;14.35;10.48;;;;;;;19.10;85.04;98881.31;1727217;82;21506;-71
2021/07/21 05:18:51;;;;;;;12.98;9.95;;;;;;;19.13;84.99;98886.73;1714244;82;21051;-71
2021/07/21 05:21:23;;;;;;;13.65;10.30;;;;;;;19.19;84.99;98879.24;1724726;82;21059;-72
2021/07/21 05:23:51;;;;;;;16.27;9.95;;;;;;;19.23;84.78;98871.88;1728149;82;21059;-71
2021/07/21 05:26:17;;;;;;;14.23;10.23;;;;;;;19.25;84.70;98871.52;1715630;82;21566;-71
2021/07/21 05:28:45;;;;;;;15.65;10.30;;;;;;;19.26;84.75;98871.17;1717278;82;21028;-71
2021/07/21 05:31:14;;;;;;;11.85;9.68;;;;;;;19.33;84.72;98877.47;1721359;81;21103;-70
2021/07/21 05:33:45;;;;;;;12.53;9.20;;;;;;;19.37;84.67;98871.48;1723902;82;21023;-71
2021/07/21 05:36:11;;;;;;;13.03;8.15;;;;;;;19.45;84.56;98879.42;1719115;82;21455;-72
2021/07/21 05:38:40;;;;;;;14.50;9.53;;;;;;;19.49;84.24;98877.55;1725852;82;20980;-71
2021/07/21 05:41:09;;;;;;;13.68;8.73;;;;;;;19.53;83.86;98867.41;1723290;82;21083;-73
2021/07/21 05:43:42;;;;;;;12.60;8.53;;;;;;;19.58;83.50;98871.31;1739454;82;20988;-72
2021/07/21 05:46:10;;;;;;;14.83;8.53;;;;;;;19.62;82.82;98877.17;1738877;82;21606;-72
2021/07/21 05:48:39;;;;;;;11.85;8.53;;;;;;;19.57;82.08;98866.94;1738809;82;21000;-72
2021/07/21 05:51:24;;;;;;;13.00;8.33;;;;;;;19.61;81.78;98863.13;1739139;82;21079;-73
2021/07/21 05:53:55;;;;;;;11.90;8.53;;;;;;;19.68;81.37;98864.70;1738903;82;21039;-72
2021/07/21 05:56:22;;;;;;;13.10;8.68;;;;;;;19.72;80.74;98855.14;1738915;82;21071;-73
2021/07/21 05:58:51;;;;;;;13.62;8.00;;;;;;;19.74;80.56;98858.34;1725406;82;21000;-72
2021/07/21 06:01:18;;;;;;;13.90;8.78;;;;;;;19.85;80.32;98857.48;1657040;86;21051;-71
2021/07/21 06:03:44;;;;;;;11.85;8.13;;;;;;;19.97;80.00;98864.09;1710012;84;21589;-72
2021/07/21 06:06:16;;;;;;;13.40;8.85;;;;;;;20.10;79.74;98865.61;1709396;84;21067;-72
2021/07/21 06:09:04;;;;;;;11.85;8.05;;;;;;;20.22;79.21;98870.49;1738556;82;21413;-72
2021/07/21 06:11:51;;;;;;;13.65;8.98;;;;;;;20.39;78.53;98866.59;1726865;83;21058;-73
2021/07/21 06:14:19;;;;;;;11.85;9.18;;;;;;;20.40;77.84;98874.31;1703309;83;21549;-73
2021/07/21 06:16:45;;;;;;;14.40;8.88;;;;;;;20.39;77.15;98877.64;1731118;82;20991;-72
2021/07/21 06:19:12;;;;;;;13.30;8.55;;;;;;;20.34;76.86;98869.03;1712788;82;20983;-71
2021/07/21 06:21:39;;;;;;;14.00;8.55;;;;;;;20.40;76.94;98871.55;1726428;82;21565;-71
2021/07/21 06:24:24;;;;;;;14.47;8.10;;;;;;;20.42;76.51;98878.31;1732010;82;21091;-72
2021/07/21 06:26:53;;;;;;;10.75;8.40;;;;;;;20.50;76.41;98877.91;1728007;82;21537;-71
2021/07/21 06:29:24;;;;;;;12.13;8.63;;;;;;;20.64;75.96;98878.25;1732660;82;21106;-71
2021/07/21 06:31:52;;;;;;;10.35;7.65;;;;;;;20.83;76.12;98880.48;1752671;82;21023;-72
2021/07/21 06:34:19;;;;;;;29.18;19.50;;;;;;;21.08;75.26;98876.89;1751278;82;21030;-68
2021/07/21 06:36:45;;;;;;;14.70;9.55;;;;;;;21.33;74.88;98882.42;1744242;82;21003;-72
2021/07/21 06:39:12;;;;;;;12.98;8.68;;;;;;;21.67;74.54;98875.80;1745763;82;21038;-69
2021/07/21 06:41:39;;;;;;;13.35;7.55;;;;;;;21.84;72.96;98885.04;1712270;83;21002;-73
2021/07/21 06:44:06;;;;;;;11.65;7.65;;;;;;;21.78;72.17;98890.09;1740760;82;21047;-72
2021/07/21 06:46:35;;;;;;;13.28;8.38;;;;;;;21.68;71.67;98886.50;1744975;82;21092;-71
2021/07/21 06:49:03;;;;;;;13.40;8.13;;;;;;;21.65;71.38;98888.63;1729590;82;21485;-71
2021/07/21 06:51:30;;;;;;;14.03;7.80;;;;;;;21.64;71.09;98887.62;1660613;85;21086;-71
2021/07/21 06:53:56;;;;;;;13.38;8.23;;;;;;;21.59;70.67;98888.70;1723448;83;21506;-72
2021/07/21 06:56:22;;;;;;;13.35;7.97;;;;;;;21.53;70.70;98890.75;1738917;82;21077;-74
2021/07/21 06:59:08;;;;;;;13.70;7.65;;;;;;;21.51;70.02;98891.68;1745539;82;21011;-71
2021/07/21 07:01:35;;;;;;;11.85;8.00;;;;;;;21.44;69.63;98888.19;1751853;82;21050;-72
2021/07/21 07:04:19;;;;;;;11.93;8.10;;;;;;;21.32;69.89;98891.11;1750849;82;21067;-72
2021/07/21 07:07:06;;;;;;;12.20;8.10;;;;;;;21.27;70.12;98885.27;1726823;82;21530;-72
2021/07/21 07:09:34;;;;;;;14.65;8.38;;;;;;;21.21;70.28;98890.07;1707371;82;21609;-71
2021/07/21 07:12:09;;;;;;;10.63;7.85;;;;;;;21.15;70.50;98883.23;1722047;83;21063;-74
2021/07/21 07:14:35;;;;;;;12.45;8.08;;;;;;;21.22;70.67;98885.54;1731036;82;21034;-73
2021/07/21 07:17:03;;;;;;;14.43;8.50;;;;;;;21.26;70.76;98887.00;1753189;82;21597;-72
2021/07/21 07:19:30;;;;;;;10.50;7.87;;;;;;;21.32;71.01;98883.61;1725910;82;21426;-74
2021/07/21 07:21:59;;;;;;;11.73;8.55;;;;;;;21.47;70.87;98888.06;1753155;82;21070;-73
2021/07/21 07:24:26;;;;;;;12.53;9.18;;;;;;;21.66;70.46;98885.27;1752626;82;21047;-73
2021/07/21 07:26:53;;;;;;;13.85;8.40;;;;;;;21.91;70.56;98885.78;1748665;82;21090;-73
2021/07/21 07:29:19;;;;;;;15.98;10.80;;;;;;;22.11;70.12;98880.41;1716290;82;21060;-73
2021/07/21 07:31:45;;;;;;;15.63;10.18;;;;;;;22.31;69.02;98882.78;1709860;84;21071;-72
2021/07/21 07:34:12;;;;;;;13.68;9.13;;;;;;;22.38;67.54;98878.52;1710271;82;21530;-73
2021/07/21 07:36:39;;;;;;;13.03;8.18;;;;;;;22.26;67.36;98883.08;1663658;86;21059;-75
2021/07/21 07:39:07;;;;;;;10.95;7.15;;;;;;;22.28;68.05;98883.50;1710185;82;21040;-74
2021/07/21 07:41:35;;;;;;;13.60;7.95;;;;;;;22.32;66.76;98892.69;1710328;84;21121;-74
2021/07/21 07:44:03;;;;;;;16.57;7.47;;;;;;;22.30;65.97;98881.17;1663931;86;21064;-75
2021/07/21 07:46:29;;;;;;;12.88;8.18;;;;;;;22.23;65.46;98893.53;1734579;82;21051;-74
2021/07/21 07:48:57;;;;;;;12.85;7.62;;;;;;;22.13;65.63;98890.56;1739505;82;21118;-75
2021/07/21 07:51:24;;;;;;;13.18;7.53;;;;;;;22.23;66.62;98896.87;1739642;82;21495;-74
2021/07/21 07:53:51;;;;;;;15.68;7.72;;;;;;;22.46;66.25;98897.67;1739486;82;21047;-74
2021/07/21 07:56:18;;;;;;;11.10;7.25;;;;;;;22.62;65.13;98897.55;1722507;82;21075;-73
2021/07/21 07:58:44;;;;;;;11.80;7.15;;;;;;;22.68;65.34;98899.66;1664072;86;21664;-74
2021/07/21 08:01:11;;;;;;;10.65;6.95;;;;;;;22.80;64.60;98903.63;1709771;84;21079;-75
2021/07/21 08:03:37;;;;;;;13.03;7.30;;;;;;;22.87;64.23;98909.88;1663975;86;21086;-75
2021/07/21 08:06:04;;;;;;;10.25;6.90;;;;;;;22.87;63.54;98904.32;1739082;82;21044;-75
2021/07/21 08:08:30;;;;;;;14.35;7.75;;;;;;;22.75;62.51;98901.16;1739311;82;21032;-74
2021/07/21 08:10:57;;;;;;;9.95;7.67;;;;;;;22.58;62.60;98901.64;1739129;82;21958;-74
2021/07/21 08:13:24;;;;;;;11.93;7.30;;;;;;;22.53;63.58;98898.40;1739301;82;21092;-75
2021/07/21 08:15:53;;;;;;;13.38;7.78;;;;;;;22.64;63.62;98899.34;1739966;82;21008;-76
2021/07/21 08:18:19;;;;;;;10.35;7.30;;;;;;;22.76;62.97;98899.99;1725274;82;21143;-73
2021/07/21 08:20:46;;;;;;;9.05;6.35;;;;;;;22.81;62.63;98901.05;1665115;86;21054;-73
2021/07/21 08:23:12;;;;;;;9.60;6.53;;;;;;;22.89;62.33;98897.80;1711796;82;21003;-75
2021/07/21 08:25:40;;;;;;;15.50;6.60;;;;;;;23.03;62.33;98904.14;1709847;84;21613;-75
2021/07/21 08:28:06;;;;;;;11.28;5.90;;;;;;;23.13;60.51;98907.69;1663932;86;21067;-75
2021/07/21 08:30:33;;;;;;;10.18;6.22;;;;;;;23.22;58.70;98906.81;1709774;84;21546;-73
2021/07/21 08:33:01;;;;;;;9.85;6.03;;;;;;;23.18;58.31;98898.44;1663634;86;21074;-74
2021/07/21 08:35:29;;;;;;;9.48;6.03;;;;;;;23.30;58.47;98907.13;1711479;82;21633;-75
2021/07/21 08:38:00;;;;;;;9.08;5.95;;;;;;;23.52;58.76;98912.42;1663830;86;21087;-75
2021/07/21 08:40:28;;;;;;;9.33;5.80;;;;;;;23.71;57.89;98906.69;1709602;84;21090;-75
2021/07/21 08:42:55;;;;;;;10.03;6.55;;;;;;;23.87;57.86;98907.88;1663333;86;21644;-78
2021/07/21 08:45:21;;;;;;;10.58;6.62;;;;;;;23.99;56.91;98904.23;1709833;84;21044;-74
2021/07/21 08:47:47;;;;;;;8.93;6.62;;;;;;;24.12;57.20;98906.98;1664098;86;21074;-74
2021/07/21 08:50:14;;;;;;;9.40;6.47;;;;;;;24.30;57.31;98913.33;1709667;84;21633;-73
2021/07/21 08:52:42;;;;;;;9.78;6.42;;;;;;;24.47;57.62;98898.78;1663333;86;21059;-73
2021/07/21 08:55:11;;;;;;;9.05;6.05;;;;;;;24.69;57.66;98906.14;1709723;84;21055;-73
2021/07/21 08:57:37;;;;;;;9.43;6.40;;;;;;;24.77;56.80;98906.38;1663542;86;21079;-73
2021/07/21 09:00:13;;;;;;;9.10;6.10;;;;;;;24.71;56.53;98913.50;1709622;84;21039;-74
2021/07/21 09:02:40;;;;;;;8.50;6.42;;;;;;;24.66;56.79;98906.30;1709658;83;21566;-76
2021/07/21 09:05:08;;;;;;;10.28;6.62;;;;;;;24.73;57.13;98915.28;1661810;86;21143;-74
2021/07/21 09:07:36;;;;;;;7.37;6.00;;;;;;;24.59;57.09;98913.19;1727182;82;21032;-75
2021/07/21 09:10:16;;;;;;;6.95;5.47;;;;;;;24.33;55.99;98903.63;1738955;82;21063;-73
2021/07/21 09:12:46;;;;;;;8.40;5.87;;;;;;;24.11;56.27;98912.91;1738440;82;21053;-72
2021/07/21 09:15:16;;;;;;;7.47;5.85;;;;;;;23.92;56.59;98909.72;1718680;82;21055;-75
2021/07/21 09:18:07;;;;;;;8.45;5.53;;;;;;;23.98;57.90;98905.44;1739002;82;21091;-74
2021/07/21 09:20:50;;;;;;;8.75;5.60;;;;;;;24.23;57.83;98903.72;1738993;82;21103;-74
2021/07/21 09:23:19;;;;;;;10.35;5.87;;;;;;;24.45;57.85;98907.50;1738240;82;21083;-73
2021/07/21 09:25:45;;;;;;;8.18;5.80;;;;;;;24.83;56.10;98906.84;1738709;82;21078;-73
2021/07/21 09:28:12;;;;;;;10.35;5.65;;;;;;;24.83;56.10;98906.84;1744143;81;21636;-74
2021/07/21 09:30:46;;;;;;;7.83;5.00;;;;;;;24.87;56.17;98905.69;1747002;82;21051;-75
2021/07/21 09:33:14;;;;;;;10.20;5.90;;;;;;;24.90;56.91;98897.98;1747192;82;21051;-75
2021/07/21 09:35:44;;;;;;;8.55;5.50;;;;;;;24.85;55.54;98896.94;1747122;82;21027;-74
2021/07/21 09:38:15;;;;;;;8.23;5.75;;;;;;;24.70;55.92;98911.89;1746458;82;21042;-78
2021/07/21 09:40:46;;;;;;;6.95;5.42;;;;;;;24.51;56.70;98904.59;1746840;82;21059;-73
2021/07/21 09:43:14;;;;;;;7.75;5.37;;;;;;;24.40;57.16;98909.84;1746984;82;21043;-75
2021/07/21 09:45:43;;;;;;;8.40;5.20;;;;;;;24.17;57.72;98914.18;1718438;82;21051;-75
2021/07/21 09:48:10;;;;;;;9.15;5.50;;;;;;;24.17;57.72;98914.18;1746633;82;21086;-73
2021/07/21 09:50:41;;;;;;;7.37;5.47;;;;;;;23.98;59.25;98892.12;1747099;82;21102;-73
2021/07/21 09:53:12;;;;;;;7.67;5.50;;;;;;;23.98;59.25;98892.12;1747180;81;21066;-74
2021/07/21 09:55:41;;;;;;;7.28;5.90;;;;;;;24.10;59.48;98902.37;1747163;82;21031;-73
2021/07/21 09:58:14;;;;;;;8.20;5.42;;;;;;;24.36;58.84;98898.69;1746651;82;21565;-73
2021/07/21 10:00:45;;;;;;;9.35;5.12;;;;;;;24.60;58.68;98892.54;1739315;82;21720;-72
2021/07/21 10:03:23;;;;;;;8.50;5.25;;;;;;;24.73;57.21;98880.50;1717774;82;21086;-74
2021/07/21 10:06:04;;;;;;;6.42;4.53;;;;;;;24.67;55.96;98893.19;1717302;83;21595;-73
2021/07/21 10:08:48;;;;;;;7.30;5.22;;;;;;;24.55;56.29;98888.70;1730490;82;21078;-74
2021/07/21 10:11:21;;;;;;;9.85;5.53;;;;;;;24.66;57.26;98890.98;1747185;82;21055;-74
2021/07/21 10:13:53;;;;;;;7.33;4.72;;;;;;;24.95;57.10;98885.66;1747443;82;21031;-72
2021/07/21 10:16:47;;;;;;;6.97;4.87;;;;;;;25.10;55.08;98893.73;1745290;82;21047;-73
2021/07/21 10:19:23;;;;;;;6.60;4.80;;;;;;;25.06;54.99;98883.16;1683276;85;21071;-72
2021/07/21 10:22:00;;;;;;;6.78;4.50;;;;;;;25.15;55.36;98882.83;1670852;86;21545;-73
2021/07/21 10:24:32;;;;;;;7.70;4.87;;;;;;;25.16;54.75;98880.22;1717711;83;21058;-74
2021/07/21 10:26:59;;;;;;;5.75;4.42;;;;;;;25.08;55.38;98882.16;1722238;82;21871;-73
2021/07/21 10:29:25;;;;;;;8.70;5.05;;;;;;;24.97;54.60;98884.70;1752773;81;21067;-74
2021/07/21 10:31:52;;;;;;;6.00;4.33;;;;;;;24.90;54.29;98881.86;1752627;82;21560;-73
2021/07/21 10:34:19;;;;;;;7.35;4.62;;;;;;;24.67;54.45;98885.64;1752877;82;21027;-73
2021/07/21 10:36:46;;;;;;;7.25;5.05;;;;;;;24.45;54.53;98886.64;1735447;82;21018;-74
2021/07/21 10:39:17;;;;;;;6.45;4.67;;;;;;;24.28;55.11;98889.48;1723213;83;21081;-73
2021/07/21 10:42:30;;;;;;;8.80;4.47;;;;;;;24.12;55.47;98895.85;1790767;79;23590;-70
2021/07/21 10:45:17;;;;;;;7.25;4.10;;;;;;;23.94;55.88;98899.62;1752700;82;21482;-69
2021/07/21 10:47:50;;;;;;;7.97;4.05;;;;;;;23.82;56.43;98886.77;1701425;83;21050;-71
2021/07/21 10:53:58;;;;;;;7.60;4.58;;;;;;;23.61;57.98;98884.55;1737569;82;21069;-69
2021/07/21 10:59:16;;;;;;;6.28;3.98;;;;;;;23.55;58.40;98887.46;1753051;82;21003;-70
2021/07/21 11:01:46;;;;;;;6.72;4.22;;;;;;;23.59;58.13;98888.89;1751839;82;21085;-70
2021/07/21 11:04:12;;;;;;;7.10;4.70;;;;;;;23.62;57.97;98890.33;1722764;82;21414;-70
2021/07/21 11:06:44;;;;;;;5.90;4.00;;;;;;;23.66;58.59;98882.03;1745029;82;20980;-71
2021/07/21 11:09:26;;;;;;;7.22;4.37;;;;;;;23.78;58.56;98882.56;1737348;82;20966;-70
2021/07/21 11:11:57;;;;;;;10.08;4.33;;;;;;;24.03;58.15;98893.15;1731779;82;21050;-71
2021/07/21 11:14:27;;;;;;;6.22;4.10;;;;;;;24.03;58.15;98893.15;1752011;82;20955;-70
2021/07/21 11:17:12;;;;;;;11.10;3.60;;;;;;;23.98;56.52;98890.73;1742618;82;21563;-70
2021/07/21 11:19:52;;;;;;;6.10;3.70;;;;;;;23.86;56.24;98893.77;1663832;85;20979;-71
2021/07/21 11:22:29;;;;;;;6.78;3.70;;;;;;;23.77;56.65;98892.07;1684152;84;21119;-70
2021/07/21 11:25:16;;;;;;;5.22;3.60;;;;;;;23.81;56.76;98892.73;1675180;85;21022;-71
2021/07/21 11:27:53;;;;;;;;;;;;;;;23.90;57.01;98890.44;1661120;85;21069;-70
2021/07/21 11:30:44;;;;;;;8.28;3.87;;;;;;;24.04;55.38;98887.81;1691089;85;20131;-70
2021/07/21 11:33:55;;;;;;;6.65;3.33;;;;;;;24.08;55.24;98892.23;1678838;85;21071;-70
2021/07/21 11:36:48;;;;;;;6.35;3.83;;;;;;;24.20;55.36;98891.17;1691356;84;21012;-71
2021/07/21 11:39:45;;;;;;;5.67;4.08;;;;;;;24.30;54.83;98885.52;1709480;82;20968;-68
2021/07/21 11:42:38;;;;;;;6.12;3.92;;;;;;;24.30;54.02;98887.72;1702571;83;21557;-68
2021/07/21 11:45:15;;;;;;;7.47;4.05;;;;;;;24.30;53.71;98898.03;1698305;84;21009;-69
2021/07/21 11:47:47;;;;;;;9.40;3.77;;;;;;;24.27;54.03;98886.48;1699676;84;21084;-70
2021/07/21 11:50:21;;;;;;;6.15;3.70;;;;;;;24.27;53.11;98899.58;1700080;84;21505;-69
2021/07/21 11:52:53;;;;;;;6.80;3.30;;;;;;;24.24;53.60;98902.55;1699746;84;21021;-69
2021/07/21 11:55:22;;;;;;;3.87;2.98;;;;;;;24.21;52.57;98908.07;1728145;82;21014;-69